CYEN

Estevan Airport

Estevan, Saskatchewan, Canada
METAR CYEN 172000Z AUTO 22013G18KT CLR 17/02 A3019 RMK WX MISG VIS MISG PCPN MISG SLP241 DENSITY ALT 2200FT
Observed Flight Rules
Oct-17 @ 20:00 UTC (50 minutes ago)
Wind Clouds
220° at 13 knots
 Gusting to 18 knots
  • Clear skies
Temperatures Readings
Current 17°C / 63°F
Dewpoint 2°C / 36°F
Humidity 37%
Altimeter 30.19" Hg
Pressure 1024.1 hPa
Elevation 581
METAR CYEN 172000Z AUTO 22013G18KT CLR 17/02 A3019 RMK WX MISG VIS MISG PCPN MISG SLP241 DENSITY ALT 2200FT
Observed Flight Rules
Oct-17 @ 20:00 UTC
(50 minutes ago)
Wind
220° at 13 knots
 Gusting to 18 knots
Clouds
  • Clear skies
Temperature Dewpoint
17°C / 63°F 2°C / 36°F
Humidity Altimeter Pressure
37% 30.19" Hg 1024.1 hPa